< < Back
Terminal Aerodrome Forecast


Current Version              Previous Versions:   1  2  3  4  5  6  7  8  9  

Terminal Aerodrome Forecast

017
FTUS42 KCHS 261305 AAA
TAFSAV
TAF AMD
KSAV 261305Z 2613/2712 21008KT P6SM SCT002 SCT060
     FM261500 22009KT P6SM FEW015 SCT050 BKN250
     FM261700 21013G19KT P6SM BKN050
     FM262300 18008KT P6SM BKN050
     FM270400 21006KT P6SM VCSH SCT015 OVC035=



Latest METAR

647
SAUS80 KWBC 270300
MTRSAV
METAR KSAV 270253Z 22004KT 10SM FEW015 SCT090 BKN110 OVC150 18/17 A2983
RMK AO2 RAE0155 SLP100 P0000 60000 T01830167 55008


USA.gov is the U.S. government's official web portal to all federal, state and local government web resources and services.